sensor_id;sensor_type;location;lat;lon;timestamp;P1;durP1;ratioP1;P2;durP2;ratioP2
13687;SDS011;6916;51.504;7.416;2022-08-01T00:02:05;23.27;;;20.88;;
13687;SDS011;6916;51.504;7.416;2022-08-01T00:07:28;23.88;;;21.48;;
13687;SDS011;6916;51.504;7.416;2022-08-01T00:12:50;25.33;;;22.50;;
13687;SDS011;6916;51.504;7.416;2022-08-01T00:18:12;25.58;;;22.90;;
13687;SDS011;6916;51.504;7.416;2022-08-01T00:23:35;25.30;;;22.75;;
13687;SDS011;6916;51.504;7.416;2022-08-01T00:28:58;23.75;;;21.35;;
13687;SDS011;6916;51.504;7.416;2022-08-01T00:34:20;25.02;;;22.40;;
13687;SDS011;6916;51.504;7.416;2022-08-01T00:39:43;27.52;;;22.40;;
13687;SDS011;6916;51.504;7.416;2022-08-01T00:45:05;21.80;;;19.75;;
13687;SDS011;6916;51.504;7.416;2022-08-01T00:50:28;24.10;;;20.67;;
13687;SDS011;6916;51.504;7.416;2022-08-01T00:55:53;23.92;;;21.63;;
13687;SDS011;6916;51.504;7.416;2022-08-01T01:01:15;26.73;;;24.08;;
13687;SDS011;6916;51.504;7.416;2022-08-01T01:34:48;30.98;;;27.92;;
13687;SDS011;6916;51.504;7.416;2022-08-01T01:40:11;29.50;;;26.70;;
13687;SDS011;6916;51.504;7.416;2022-08-01T01:45:35;35.10;;;31.15;;
13687;SDS011;6916;51.504;7.416;2022-08-01T01:50:58;36.47;;;32.70;;
13687;SDS011;6916;51.504;7.416;2022-08-01T01:56:20;36.05;;;32.15;;
13687;SDS011;6916;51.504;7.416;2022-08-01T02:01:43;33.65;;;30.20;;
13687;SDS011;6916;51.504;7.416;2022-08-01T02:07:06;32.28;;;29.17;;
13687;SDS011;6916;51.504;7.416;2022-08-01T02:12:32;28.90;;;24.73;;
13687;SDS011;6916;51.504;7.416;2022-08-01T02:17:55;28.08;;;25.02;;
13687;SDS011;6916;51.504;7.416;2022-08-01T02:23:18;26.98;;;24.15;;
13687;SDS011;6916;51.504;7.416;2022-08-01T02:28:46;25.95;;;23.33;;
13687;SDS011;6916;51.504;7.416;2022-08-01T02:34:09;26.58;;;23.55;;
13687;SDS011;6916;51.504;7.416;2022-08-01T02:39:33;27.17;;;24.50;;
13687;SDS011;6916;51.504;7.416;2022-08-01T02:44:57;27.10;;;24.52;;
13687;SDS011;6916;51.504;7.416;2022-08-01T02:50:20;32.90;;;27.58;;
13687;SDS011;6916;51.504;7.416;2022-08-01T02:55:43;31.35;;;27.30;;
13687;SDS011;6916;51.504;7.416;2022-08-01T03:01:06;29.95;;;26.85;;
13687;SDS011;6916;51.504;7.416;2022-08-01T03:06:29;28.45;;;24.92;;
13687;SDS011;6916;51.504;7.416;2022-08-01T03:11:51;16.73;;;13.25;;
13687;SDS011;6916;51.504;7.416;2022-08-01T03:17:15;15.15;;;13.65;;
13687;SDS011;6916;51.504;7.416;2022-08-01T03:22:39;16.23;;;13.70;;
13687;SDS011;6916;51.504;7.416;2022-08-01T03:28:03;15.48;;;13.98;;
13687;SDS011;6916;51.504;7.416;2022-08-01T03:33:27;15.07;;;13.45;;
13687;SDS011;6916;51.504;7.416;2022-08-01T03:38:49;14.80;;;13.40;;
13687;SDS011;6916;51.504;7.416;2022-08-01T03:44:14;16.08;;;14.38;;
13687;SDS011;6916;51.504;7.416;2022-08-01T03:49:44;16.25;;;14.55;;
13687;SDS011;6916;51.504;7.416;2022-08-01T03:55:06;16.98;;;15.32;;
13687;SDS011;6916;51.504;7.416;2022-08-01T04:00:29;17.35;;;15.57;;
13687;SDS011;6916;51.504;7.416;2022-08-01T04:05:52;19.83;;;16.15;;
13687;SDS011;6916;51.504;7.416;2022-08-01T04:11:14;19.42;;;16.60;;
13687;SDS011;6916;51.504;7.416;2022-08-01T04:16:36;20.38;;;17.98;;
13687;SDS011;6916;51.504;7.416;2022-08-01T04:21:59;18.85;;;15.85;;
13687;SDS011;6916;51.504;7.416;2022-08-01T04:27:22;22.42;;;16.75;;
13687;SDS011;6916;51.504;7.416;2022-08-01T04:32:47;20.05;;;15.90;;
13687;SDS011;6916;51.504;7.416;2022-08-01T04:38:09;22.15;;;16.15;;
13687;SDS011;6916;51.504;7.416;2022-08-01T04:43:34;18.38;;;14.35;;
13687;SDS011;6916;51.504;7.416;2022-08-01T04:48:56;15.88;;;13.27;;
13687;SDS011;6916;51.504;7.416;2022-08-01T04:54:19;20.23;;;14.63;;
13687;SDS011;6916;51.504;7.416;2022-08-01T04:59:43;18.48;;;15.10;;
13687;SDS011;6916;51.504;7.416;2022-08-01T05:05:05;19.45;;;14.07;;
13687;SDS011;6916;51.504;7.416;2022-08-01T05:10:28;17.65;;;13.80;;
13687;SDS011;6916;51.504;7.416;2022-08-01T05:15:50;14.68;;;13.10;;
13687;SDS011;6916;51.504;7.416;2022-08-01T05:21:14;19.55;;;13.43;;
13687;SDS011;6916;51.504;7.416;2022-08-01T05:26:36;15.73;;;12.88;;
13687;SDS011;6916;51.504;7.416;2022-08-01T05:31:58;14.82;;;11.88;;
13687;SDS011;6916;51.504;7.416;2022-08-01T05:37:21;19.77;;;14.60;;
13687;SDS011;6916;51.504;7.416;2022-08-01T05:42:43;21.15;;;15.15;;
13687;SDS011;6916;51.504;7.416;2022-08-01T05:48:05;18.35;;;13.75;;
13687;SDS011;6916;51.504;7.416;2022-08-01T05:53:27;21.00;;;14.93;;
13687;SDS011;6916;51.504;7.416;2022-08-01T05:58:50;18.23;;;14.38;;
13687;SDS011;6916;51.504;7.416;2022-08-01T06:04:12;20.98;;;14.93;;
13687;SDS011;6916;51.504;7.416;2022-08-01T06:09:34;15.98;;;12.38;;
13687;SDS011;6916;51.504;7.416;2022-08-01T06:14:57;20.75;;;14.95;;
13687;SDS011;6916;51.504;7.416;2022-08-01T06:20:19;17.33;;;12.98;;
13687;SDS011;6916;51.504;7.416;2022-08-01T06:25:42;16.73;;;12.95;;
13687;SDS011;6916;51.504;7.416;2022-08-01T06:31:04;16.25;;;13.07;;
13687;SDS011;6916;51.504;7.416;2022-08-01T06:36:26;13.90;;;11.32;;
13687;SDS011;6916;51.504;7.416;2022-08-01T06:41:49;11.32;;;9.70;;
13687;SDS011;6916;51.504;7.416;2022-08-01T06:47:11;9.75;;;8.50;;
13687;SDS011;6916;51.504;7.416;2022-08-01T06:52:33;10.90;;;9.48;;
13687;SDS011;6916;51.504;7.416;2022-08-01T06:57:55;9.30;;;8.23;;
13687;SDS011;6916;51.504;7.416;2022-08-01T07:03:17;11.48;;;9.85;;
13687;SDS011;6916;51.504;7.416;2022-08-01T07:08:40;10.88;;;9.48;;
13687;SDS011;6916;51.504;7.416;2022-08-01T07:14:02;11.23;;;9.27;;
13687;SDS011;6916;51.504;7.416;2022-08-01T07:19:25;14.00;;;9.93;;
13687;SDS011;6916;51.504;7.416;2022-08-01T07:24:47;10.23;;;9.23;;
13687;SDS011;6916;51.504;7.416;2022-08-01T07:30:09;13.80;;;10.57;;
13687;SDS011;6916;51.504;7.416;2022-08-01T07:35:32;13.93;;;11.32;;
13687;SDS011;6916;51.504;7.416;2022-08-01T07:40:54;13.73;;;10.75;;
13687;SDS011;6916;51.504;7.416;2022-08-01T07:46:16;12.88;;;10.32;;
13687;SDS011;6916;51.504;7.416;2022-08-01T07:51:39;10.50;;;9.48;;
13687;SDS011;6916;51.504;7.416;2022-08-01T07:57:02;11.30;;;10.07;;
13687;SDS011;6916;51.504;7.416;2022-08-01T08:02:24;9.63;;;8.63;;
13687;SDS011;6916;51.504;7.416;2022-08-01T08:07:47;9.43;;;8.32;;
13687;SDS011;6916;51.504;7.416;2022-08-01T08:13:09;9.18;;;6.90;;
13687;SDS011;6916;51.504;7.416;2022-08-01T08:18:31;7.53;;;5.15;;
13687;SDS011;6916;51.504;7.416;2022-08-01T08:23:54;6.18;;;5.18;;
13687;SDS011;6916;51.504;7.416;2022-08-01T08:29:35;6.50;;;5.90;;
13687;SDS011;6916;51.504;7.416;2022-08-01T08:34:58;4.03;;;3.72;;
13687;SDS011;6916;51.504;7.416;2022-08-01T08:40:20;3.63;;;3.33;;
13687;SDS011;6916;51.504;7.416;2022-08-01T08:45:45;5.43;;;3.17;;
13687;SDS011;6916;51.504;7.416;2022-08-01T08:51:08;5.45;;;2.80;;
13687;SDS011;6916;51.504;7.416;2022-08-01T08:56:33;2.90;;;2.25;;
13687;SDS011;6916;51.504;7.416;2022-08-01T09:01:57;2.10;;;1.90;;
13687;SDS011;6916;51.504;7.416;2022-08-01T09:07:20;2.20;;;2.00;;
13687;SDS011;6916;51.504;7.416;2022-08-01T09:18:54;1.27;;;1.17;;
13687;SDS011;6916;51.504;7.416;2022-08-01T09:24:29;1.45;;;1.10;;
13687;SDS011;6916;51.504;7.416;2022-08-01T09:29:53;1.38;;;1.13;;
13687;SDS011;6916;51.504;7.416;2022-08-01T09:35:29;1.17;;;1.10;;
13687;SDS011;6916;51.504;7.416;2022-08-01T09:40:59;2.40;;;1.40;;
13687;SDS011;6916;51.504;7.416;2022-08-01T09:46:22;1.25;;;1.13;;
13687;SDS011;6916;51.504;7.416;2022-08-01T09:51:45;1.25;;;0.70;;
13687;SDS011;6916;51.504;7.416;2022-08-01T09:57:09;1.65;;;0.63;;
13687;SDS011;6916;51.504;7.416;2022-08-01T10:02:33;2.13;;;1.15;;
13687;SDS011;6916;51.504;7.416;2022-08-01T10:07:58;1.08;;;0.98;;
13687;SDS011;6916;51.504;7.416;2022-08-01T10:13:21;0.73;;;0.73;;
13687;SDS011;6916;51.504;7.416;2022-08-01T10:18:44;0.75;;;0.60;;
13687;SDS011;6916;51.504;7.416;2022-08-01T10:24:06;0.85;;;0.60;;
13687;SDS011;6916;51.504;7.416;2022-08-01T10:30:05;0.50;;;0.50;;
13687;SDS011;6916;51.504;7.416;2022-08-01T10:35:25;0.50;;;0.50;;
13687;SDS011;6916;51.504;7.416;2022-08-01T10:40:47;0.50;;;0.50;;
13687;SDS011;6916;51.504;7.416;2022-08-01T10:46:10;0.50;;;0.50;;
13687;SDS011;6916;51.504;7.416;2022-08-01T10:51:37;0.60;;;0.40;;
13687;SDS011;6916;51.504;7.416;2022-08-01T10:57:00;0.80;;;0.40;;
13687;SDS011;6916;51.504;7.416;2022-08-01T11:02:32;0.40;;;0.40;;
13687;SDS011;6916;51.504;7.416;2022-08-01T11:07:55;0.55;;;0.55;;
13687;SDS011;6916;51.504;7.416;2022-08-01T11:13:54;1.33;;;0.70;;
13687;SDS011;6916;51.504;7.416;2022-08-01T11:36:32;0.20;;;0.20;;
13687;SDS011;6916;51.504;7.416;2022-08-01T11:42:01;0.55;;;0.30;;
13687;SDS011;6916;51.504;7.416;2022-08-01T11:47:45;0.47;;;0.10;;
13687;SDS011;6916;51.504;7.416;2022-08-01T11:53:14;0.10;;;0.10;;
13687;SDS011;6916;51.504;7.416;2022-08-01T11:58:37;0.22;;;0.10;;
13687;SDS011;6916;51.504;7.416;2022-08-01T12:03:59;0.10;;;0.10;;
13687;SDS011;6916;51.504;7.416;2022-08-01T12:09:22;0.20;;;0.10;;
13687;SDS011;6916;51.504;7.416;2022-08-01T12:14:45;0.30;;;0.10;;
13687;SDS011;6916;51.504;7.416;2022-08-01T12:20:09;0.10;;;0.10;;
13687;SDS011;6916;51.504;7.416;2022-08-01T12:25:33;0.10;;;0.10;;
13687;SDS011;6916;51.504;7.416;2022-08-01T12:30:56;1.50;;;0.20;;
13687;SDS011;6916;51.504;7.416;2022-08-01T12:36:26;1.15;;;0.20;;
13687;SDS011;6916;51.504;7.416;2022-08-01T12:41:50;1.45;;;0.20;;
13687;SDS011;6916;51.504;7.416;2022-08-01T12:47:13;2.72;;;0.22;;
13687;SDS011;6916;51.504;7.416;2022-08-01T12:52:37;0.10;;;0.10;;
13687;SDS011;6916;51.504;7.416;2022-08-01T12:58:04;0.20;;;0.17;;
13687;SDS011;6916;51.504;7.416;2022-08-01T13:03:30;0.20;;;0.20;;
13687;SDS011;6916;51.504;7.416;2022-08-01T13:08:52;0.82;;;0.35;;
13687;SDS011;6916;51.504;7.416;2022-08-01T13:14:27;0.82;;;0.20;;
13687;SDS011;6916;51.504;7.416;2022-08-01T13:19:50;0.43;;;0.30;;
13687;SDS011;6916;51.504;7.416;2022-08-01T13:25:14;0.88;;;0.20;;
13687;SDS011;6916;51.504;7.416;2022-08-01T13:30:37;1.10;;;0.20;;
13687;SDS011;6916;51.504;7.416;2022-08-01T13:35:59;0.32;;;0.20;;
13687;SDS011;6916;51.504;7.416;2022-08-01T13:41:21;0.20;;;0.20;;
13687;SDS011;6916;51.504;7.416;2022-08-01T13:46:43;0.77;;;0.20;;
13687;SDS011;6916;51.504;7.416;2022-08-01T13:52:06;0.38;;;0.30;;
13687;SDS011;6916;51.504;7.416;2022-08-01T13:57:29;1.27;;;0.40;;
13687;SDS011;6916;51.504;7.416;2022-08-01T14:02:51;0.35;;;0.30;;
13687;SDS011;6916;51.504;7.416;2022-08-01T14:08:14;0.38;;;0.38;;
13687;SDS011;6916;51.504;7.416;2022-08-01T14:13:36;0.40;;;0.40;;
13687;SDS011;6916;51.504;7.416;2022-08-01T14:19:00;0.65;;;0.65;;
13687;SDS011;6916;51.504;7.416;2022-08-01T14:24:22;1.02;;;0.75;;
13687;SDS011;6916;51.504;7.416;2022-08-01T14:29:45;2.38;;;0.70;;
13687;SDS011;6916;51.504;7.416;2022-08-01T14:35:08;1.73;;;0.82;;
13687;SDS011;6916;51.504;7.416;2022-08-01T14:40:31;1.13;;;0.60;;
13687;SDS011;6916;51.504;7.416;2022-08-01T14:45:53;0.90;;;0.60;;
13687;SDS011;6916;51.504;7.416;2022-08-01T14:51:16;1.90;;;0.30;;
13687;SDS011;6916;51.504;7.416;2022-08-01T14:56:38;0.32;;;0.28;;
13687;SDS011;6916;51.504;7.416;2022-08-01T15:02:01;0.85;;;0.68;;
13687;SDS011;6916;51.504;7.416;2022-08-01T15:07:23;2.75;;;0.52;;
13687;SDS011;6916;51.504;7.416;2022-08-01T15:12:45;1.02;;;0.70;;
13687;SDS011;6916;51.504;7.416;2022-08-01T15:18:07;1.60;;;0.50;;
13687;SDS011;6916;51.504;7.416;2022-08-01T15:23:30;1.40;;;0.70;;
13687;SDS011;6916;51.504;7.416;2022-08-01T15:28:52;0.90;;;0.73;;
13687;SDS011;6916;51.504;7.416;2022-08-01T15:34:14;2.38;;;0.80;;
13687;SDS011;6916;51.504;7.416;2022-08-01T15:39:36;2.80;;;0.60;;
13687;SDS011;6916;51.504;7.416;2022-08-01T15:44:59;0.88;;;0.75;;
13687;SDS011;6916;51.504;7.416;2022-08-01T15:50:22;0.90;;;0.65;;
13687;SDS011;6916;51.504;7.416;2022-08-01T15:55:45;1.20;;;0.63;;
13687;SDS011;6916;51.504;7.416;2022-08-01T16:01:07;0.90;;;0.70;;
13687;SDS011;6916;51.504;7.416;2022-08-01T16:06:30;1.10;;;0.70;;
13687;SDS011;6916;51.504;7.416;2022-08-01T16:11:52;2.13;;;0.90;;
13687;SDS011;6916;51.504;7.416;2022-08-01T16:17:14;1.88;;;0.93;;
13687;SDS011;6916;51.504;7.416;2022-08-01T16:22:37;1.38;;;1.15;;
13687;SDS011;6916;51.504;7.416;2022-08-01T16:27:59;3.25;;;1.15;;
13687;SDS011;6916;51.504;7.416;2022-08-01T16:33:21;2.70;;;1.00;;
13687;SDS011;6916;51.504;7.416;2022-08-01T16:38:44;3.42;;;1.25;;
13687;SDS011;6916;51.504;7.416;2022-08-01T16:44:07;3.15;;;0.98;;
13687;SDS011;6916;51.504;7.416;2022-08-01T16:49:34;3.30;;;1.00;;
13687;SDS011;6916;51.504;7.416;2022-08-01T16:54:57;2.13;;;1.00;;
13687;SDS011;6916;51.504;7.416;2022-08-01T17:00:22;4.95;;;1.30;;
13687;SDS011;6916;51.504;7.416;2022-08-01T17:05:48;0.98;;;0.82;;
13687;SDS011;6916;51.504;7.416;2022-08-01T17:11:13;3.15;;;1.02;;
13687;SDS011;6916;51.504;7.416;2022-08-01T17:16:37;5.82;;;1.25;;
13687;SDS011;6916;51.504;7.416;2022-08-01T17:22:03;2.63;;;1.15;;
13687;SDS011;6916;51.504;7.416;2022-08-01T17:27:26;1.38;;;0.75;;
13687;SDS011;6916;51.504;7.416;2022-08-01T17:32:49;1.17;;;0.80;;
13687;SDS011;6916;51.504;7.416;2022-08-01T17:38:12;5.32;;;2.35;;
13687;SDS011;6916;51.504;7.416;2022-08-01T17:43:34;4.18;;;1.77;;
13687;SDS011;6916;51.504;7.416;2022-08-01T17:48:56;3.60;;;1.45;;
13687;SDS011;6916;51.504;7.416;2022-08-01T17:54:19;2.58;;;1.25;;
13687;SDS011;6916;51.504;7.416;2022-08-01T17:59:41;2.72;;;1.35;;
13687;SDS011;6916;51.504;7.416;2022-08-01T18:05:05;5.05;;;3.35;;
13687;SDS011;6916;51.504;7.416;2022-08-01T18:10:28;3.20;;;1.25;;
13687;SDS011;6916;51.504;7.416;2022-08-01T18:15:50;4.22;;;1.05;;
13687;SDS011;6916;51.504;7.416;2022-08-01T18:21:13;2.55;;;1.48;;
13687;SDS011;6916;51.504;7.416;2022-08-01T18:26:35;4.78;;;1.20;;
13687;SDS011;6916;51.504;7.416;2022-08-01T18:31:57;2.05;;;0.95;;
13687;SDS011;6916;51.504;7.416;2022-08-01T18:37:24;3.90;;;1.63;;
13687;SDS011;6916;51.504;7.416;2022-08-01T18:42:46;3.97;;;1.30;;
13687;SDS011;6916;51.504;7.416;2022-08-01T18:48:09;3.90;;;1.73;;
13687;SDS011;6916;51.504;7.416;2022-08-01T18:53:32;7.22;;;1.95;;
13687;SDS011;6916;51.504;7.416;2022-08-01T18:58:55;3.35;;;1.52;;
13687;SDS011;6916;51.504;7.416;2022-08-01T19:04:17;2.15;;;1.20;;
13687;SDS011;6916;51.504;7.416;2022-08-01T19:09:39;4.18;;;1.25;;
13687;SDS011;6916;51.504;7.416;2022-08-01T19:15:02;3.70;;;1.58;;
13687;SDS011;6916;51.504;7.416;2022-08-01T19:20:24;2.75;;;0.93;;
13687;SDS011;6916;51.504;7.416;2022-08-01T19:25:47;4.75;;;1.10;;
13687;SDS011;6916;51.504;7.416;2022-08-01T19:31:11;4.55;;;1.35;;
13687;SDS011;6916;51.504;7.416;2022-08-01T19:36:34;3.58;;;1.13;;
13687;SDS011;6916;51.504;7.416;2022-08-01T19:41:58;7.57;;;1.58;;
13687;SDS011;6916;51.504;7.416;2022-08-01T19:47:20;5.45;;;1.25;;
13687;SDS011;6916;51.504;7.416;2022-08-01T19:52:43;3.72;;;1.60;;
13687;SDS011;6916;51.504;7.416;2022-08-01T19:58:05;3.80;;;1.50;;
13687;SDS011;6916;51.504;7.416;2022-08-01T20:03:28;3.95;;;1.63;;
13687;SDS011;6916;51.504;7.416;2022-08-01T20:08:53;5.65;;;1.52;;
13687;SDS011;6916;51.504;7.416;2022-08-01T20:14:16;4.75;;;1.58;;
13687;SDS011;6916;51.504;7.416;2022-08-01T20:19:39;4.82;;;1.45;;
13687;SDS011;6916;51.504;7.416;2022-08-01T20:25:02;4.53;;;1.45;;
13687;SDS011;6916;51.504;7.416;2022-08-01T20:30:24;4.38;;;1.73;;
13687;SDS011;6916;51.504;7.416;2022-08-01T20:35:49;4.55;;;1.63;;
13687;SDS011;6916;51.504;7.416;2022-08-01T20:41:13;4.07;;;1.50;;
13687;SDS011;6916;51.504;7.416;2022-08-01T20:46:36;5.65;;;1.50;;
13687;SDS011;6916;51.504;7.416;2022-08-01T20:51:59;4.95;;;1.75;;
13687;SDS011;6916;51.504;7.416;2022-08-01T20:57:22;4.32;;;1.50;;
13687;SDS011;6916;51.504;7.416;2022-08-01T21:02:53;3.83;;;1.90;;
13687;SDS011;6916;51.504;7.416;2022-08-01T21:08:27;4.85;;;2.03;;
13687;SDS011;6916;51.504;7.416;2022-08-01T21:13:56;4.13;;;1.70;;
13687;SDS011;6916;51.504;7.416;2022-08-01T21:19:21;4.32;;;1.80;;
13687;SDS011;6916;51.504;7.416;2022-08-01T21:24:53;6.28;;;2.28;;
13687;SDS011;6916;51.504;7.416;2022-08-01T21:30:20;4.18;;;2.50;;
13687;SDS011;6916;51.504;7.416;2022-08-01T21:35:44;9.45;;;2.40;;
13687;SDS011;6916;51.504;7.416;2022-08-01T21:41:07;5.65;;;1.83;;
13687;SDS011;6916;51.504;7.416;2022-08-01T21:46:29;5.45;;;2.20;;
13687;SDS011;6916;51.504;7.416;2022-08-01T21:51:53;3.47;;;2.13;;
13687;SDS011;6916;51.504;7.416;2022-08-01T22:03:09;4.78;;;2.45;;
13687;SDS011;6916;51.504;7.416;2022-08-01T22:08:35;5.70;;;2.75;;
13687;SDS011;6916;51.504;7.416;2022-08-01T22:14:10;5.27;;;2.43;;
13687;SDS011;6916;51.504;7.416;2022-08-01T22:19:35;3.78;;;2.17;;
13687;SDS011;6916;51.504;7.416;2022-08-01T22:24:58;6.07;;;2.97;;
13687;SDS011;6916;51.504;7.416;2022-08-01T22:30:20;2.45;;;2.22;;
13687;SDS011;6916;51.504;7.416;2022-08-01T22:35:47;4.70;;;2.30;;
13687;SDS011;6916;51.504;7.416;2022-08-01T22:41:15;6.30;;;2.67;;
13687;SDS011;6916;51.504;7.416;2022-08-01T22:46:49;6.30;;;2.80;;
13687;SDS011;6916;51.504;7.416;2022-08-01T22:52:17;4.32;;;2.85;;
13687;SDS011;6916;51.504;7.416;2022-08-01T22:57:46;5.33;;;2.57;;
13687;SDS011;6916;51.504;7.416;2022-08-01T23:03:14;4.33;;;2.60;;
13687;SDS011;6916;51.504;7.416;2022-08-01T23:08:40;6.60;;;3.03;;
13687;SDS011;6916;51.504;7.416;2022-08-01T23:14:02;3.40;;;2.20;;
13687;SDS011;6916;51.504;7.416;2022-08-01T23:19:24;5.57;;;2.60;;
13687;SDS011;6916;51.504;7.416;2022-08-01T23:24:47;4.72;;;2.47;;
13687;SDS011;6916;51.504;7.416;2022-08-01T23:30:10;4.13;;;2.63;;
13687;SDS011;6916;51.504;7.416;2022-08-01T23:35:33;6.03;;;2.67;;
13687;SDS011;6916;51.504;7.416;2022-08-01T23:40:55;4.83;;;3.03;;
13687;SDS011;6916;51.504;7.416;2022-08-01T23:46:17;7.93;;;3.00;;
13687;SDS011;6916;51.504;7.416;2022-08-01T23:51:39;6.35;;;3.40;;
13687;SDS011;6916;51.504;7.416;2022-08-01T23:57:02;3.00;;;2.50;;
